sensor_id;sensor_type;location;lat;lon;timestamp;temperature;humidity
40123;DHT22;25832;45.490;4.912;2023-04-24T00:01:48;11.00;99.90
40123;DHT22;25832;45.490;4.912;2023-04-24T00:04:14;11.00;99.90
40123;DHT22;25832;45.490;4.912;2023-04-24T00:06:42;11.00;99.90
40123;DHT22;25832;45.490;4.912;2023-04-24T00:09:09;11.00;99.90
40123;DHT22;25832;45.490;4.912;2023-04-24T00:11:36;11.00;99.90
40123;DHT22;25832;45.490;4.912;2023-04-24T00:14:02;11.00;99.90
40123;DHT22;25832;45.490;4.912;2023-04-24T00:16:28;11.00;99.90
40123;DHT22;25832;45.490;4.912;2023-04-24T00:18:54;10.90;99.90
40123;DHT22;25832;45.490;4.912;2023-04-24T00:21:20;11.00;99.90
40123;DHT22;25832;45.490;4.912;2023-04-24T00:23:47;11.00;99.90
40123;DHT22;25832;45.490;4.912;2023-04-24T00:26:13;11.00;99.90
40123;DHT22;25832;45.490;4.912;2023-04-24T00:28:39;10.90;99.90
40123;DHT22;25832;45.490;4.912;2023-04-24T00:31:05;10.90;99.90
40123;DHT22;25832;45.490;4.912;2023-04-24T00:33:30;11.00;99.90
40123;DHT22;25832;45.490;4.912;2023-04-24T00:35:56;11.00;99.90
40123;DHT22;25832;45.490;4.912;2023-04-24T00:38:22;10.90;99.90
40123;DHT22;25832;45.490;4.912;2023-04-24T00:40:48;10.90;99.90
40123;DHT22;25832;45.490;4.912;2023-04-24T00:43:16;10.90;99.90
40123;DHT22;25832;45.490;4.912;2023-04-24T00:45:41;10.80;99.90
40123;DHT22;25832;45.490;4.912;2023-04-24T00:48:07;10.70;99.90
40123;DHT22;25832;45.490;4.912;2023-04-24T00:50:35;10.70;99.90
40123;DHT22;25832;45.490;4.912;2023-04-24T00:53:01;10.60;99.90
40123;DHT22;25832;45.490;4.912;2023-04-24T00:55:26;10.60;99.90
40123;DHT22;25832;45.490;4.912;2023-04-24T00:57:52;10.60;99.90
40123;DHT22;25832;45.490;4.912;2023-04-24T01:00:18;10.60;99.90
40123;DHT22;25832;45.490;4.912;2023-04-24T01:02:44;10.70;99.90
40123;DHT22;25832;45.490;4.912;2023-04-24T01:05:15;10.70;99.90
40123;DHT22;25832;45.490;4.912;2023-04-24T01:07:41;10.70;99.90
40123;DHT22;25832;45.490;4.912;2023-04-24T01:10:11;10.70;99.90
40123;DHT22;25832;45.490;4.912;2023-04-24T01:12:38;10.70;99.90
40123;DHT22;25832;45.490;4.912;2023-04-24T01:15:04;10.80;99.90
40123;DHT22;25832;45.490;4.912;2023-04-24T01:17:32;10.80;99.90
40123;DHT22;25832;45.490;4.912;2023-04-24T01:19:58;10.80;99.90
40123;DHT22;25832;45.490;4.912;2023-04-24T01:22:25;10.70;99.90
40123;DHT22;25832;45.490;4.912;2023-04-24T01:24:52;10.70;99.90
40123;DHT22;25832;45.490;4.912;2023-04-24T01:27:19;10.70;99.90
40123;DHT22;25832;45.490;4.912;2023-04-24T01:29:45;10.80;99.90
40123;DHT22;25832;45.490;4.912;2023-04-24T01:32:12;10.80;99.90
40123;DHT22;25832;45.490;4.912;2023-04-24T01:34:38;10.70;99.90
40123;DHT22;25832;45.490;4.912;2023-04-24T01:37:04;10.70;99.90
40123;DHT22;25832;45.490;4.912;2023-04-24T01:39:30;10.80;99.90
40123;DHT22;25832;45.490;4.912;2023-04-24T01:41:56;10.80;99.90
40123;DHT22;25832;45.490;4.912;2023-04-24T01:44:23;10.90;99.90
40123;DHT22;25832;45.490;4.912;2023-04-24T01:46:48;10.80;99.90
40123;DHT22;25832;45.490;4.912;2023-04-24T01:49:14;10.90;99.90
40123;DHT22;25832;45.490;4.912;2023-04-24T01:51:40;10.90;99.90
40123;DHT22;25832;45.490;4.912;2023-04-24T01:54:06;10.90;99.90
40123;DHT22;25832;45.490;4.912;2023-04-24T01:56:34;10.80;99.90
40123;DHT22;25832;45.490;4.912;2023-04-24T01:59:03;10.90;99.90
40123;DHT22;25832;45.490;4.912;2023-04-24T02:01:36;10.90;99.90
40123;DHT22;25832;45.490;4.912;2023-04-24T02:04:03;10.90;99.90
40123;DHT22;25832;45.490;4.912;2023-04-24T02:06:28;10.90;99.90
40123;DHT22;25832;45.490;4.912;2023-04-24T02:08:54;10.90;99.90
40123;DHT22;25832;45.490;4.912;2023-04-24T02:11:20;10.90;99.90
40123;DHT22;25832;45.490;4.912;2023-04-24T02:13:45;10.90;99.90
40123;DHT22;25832;45.490;4.912;2023-04-24T02:16:11;10.80;99.90
40123;DHT22;25832;45.490;4.912;2023-04-24T02:18:37;10.80;99.90
40123;DHT22;25832;45.490;4.912;2023-04-24T02:21:02;10.80;99.90
40123;DHT22;25832;45.490;4.912;2023-04-24T02:23:28;10.80;99.90
40123;DHT22;25832;45.490;4.912;2023-04-24T02:25:54;10.80;99.90
40123;DHT22;25832;45.490;4.912;2023-04-24T02:28:19;10.80;99.90
40123;DHT22;25832;45.490;4.912;2023-04-24T02:30:45;10.70;99.90
40123;DHT22;25832;45.490;4.912;2023-04-24T02:33:11;10.70;99.90
40123;DHT22;25832;45.490;4.912;2023-04-24T02:35:37;10.70;99.90
40123;DHT22;25832;45.490;4.912;2023-04-24T02:38:03;10.60;99.90
40123;DHT22;25832;45.490;4.912;2023-04-24T02:40:29;10.60;99.90
40123;DHT22;25832;45.490;4.912;2023-04-24T02:42:55;10.50;99.90
40123;DHT22;25832;45.490;4.912;2023-04-24T02:45:21;10.50;99.90
40123;DHT22;25832;45.490;4.912;2023-04-24T02:47:46;10.50;99.90
40123;DHT22;25832;45.490;4.912;2023-04-24T02:50:12;10.40;99.90
40123;DHT22;25832;45.490;4.912;2023-04-24T02:52:38;10.50;99.90
40123;DHT22;25832;45.490;4.912;2023-04-24T02:55:04;10.40;99.90
40123;DHT22;25832;45.490;4.912;2023-04-24T02:57:30;10.40;99.90
40123;DHT22;25832;45.490;4.912;2023-04-24T02:59:56;10.40;99.90
40123;DHT22;25832;45.490;4.912;2023-04-24T03:02:21;10.50;99.90
40123;DHT22;25832;45.490;4.912;2023-04-24T03:04:47;10.60;99.90
40123;DHT22;25832;45.490;4.912;2023-04-24T03:07:15;10.60;99.90
40123;DHT22;25832;45.490;4.912;2023-04-24T03:09:41;10.50;99.90
40123;DHT22;25832;45.490;4.912;2023-04-24T03:12:07;10.50;99.90
40123;DHT22;25832;45.490;4.912;2023-04-24T03:14:33;10.50;99.90
40123;DHT22;25832;45.490;4.912;2023-04-24T03:16:58;10.50;99.90
40123;DHT22;25832;45.490;4.912;2023-04-24T03:19:24;10.50;99.90
40123;DHT22;25832;45.490;4.912;2023-04-24T03:21:50;10.50;99.90
40123;DHT22;25832;45.490;4.912;2023-04-24T03:24:16;10.50;99.90
40123;DHT22;25832;45.490;4.912;2023-04-24T03:26:41;10.50;99.90
40123;DHT22;25832;45.490;4.912;2023-04-24T03:29:07;10.50;99.90
40123;DHT22;25832;45.490;4.912;2023-04-24T03:31:33;10.50;99.90
40123;DHT22;25832;45.490;4.912;2023-04-24T03:33:58;10.40;99.90
40123;DHT22;25832;45.490;4.912;2023-04-24T03:36:24;10.40;99.90
40123;DHT22;25832;45.490;4.912;2023-04-24T03:38:51;10.40;99.90
40123;DHT22;25832;45.490;4.912;2023-04-24T03:41:17;10.40;99.90
40123;DHT22;25832;45.490;4.912;2023-04-24T03:43:42;10.40;99.90
40123;DHT22;25832;45.490;4.912;2023-04-24T03:46:08;10.40;99.90
40123;DHT22;25832;45.490;4.912;2023-04-24T03:48:35;10.30;99.90
40123;DHT22;25832;45.490;4.912;2023-04-24T03:51:00;10.30;99.90
40123;DHT22;25832;45.490;4.912;2023-04-24T03:53:26;10.30;99.90
40123;DHT22;25832;45.490;4.912;2023-04-24T03:55:52;10.30;99.90
40123;DHT22;25832;45.490;4.912;2023-04-24T03:58:18;10.30;99.90
40123;DHT22;25832;45.490;4.912;2023-04-24T04:00:44;10.20;99.90
40123;DHT22;25832;45.490;4.912;2023-04-24T04:03:12;10.20;99.90
40123;DHT22;25832;45.490;4.912;2023-04-24T04:05:39;10.20;99.90
40123;DHT22;25832;45.490;4.912;2023-04-24T04:08:05;10.20;99.90
40123;DHT22;25832;45.490;4.912;2023-04-24T04:10:30;10.20;99.90
40123;DHT22;25832;45.490;4.912;2023-04-24T04:12:56;10.10;99.90
40123;DHT22;25832;45.490;4.912;2023-04-24T04:15:22;10.20;99.90
40123;DHT22;25832;45.490;4.912;2023-04-24T04:17:47;10.20;99.90
40123;DHT22;25832;45.490;4.912;2023-04-24T04:20:13;10.20;99.90
40123;DHT22;25832;45.490;4.912;2023-04-24T04:22:39;10.20;99.90
40123;DHT22;25832;45.490;4.912;2023-04-24T04:25:05;10.30;99.90
40123;DHT22;25832;45.490;4.912;2023-04-24T04:27:31;10.30;99.90
40123;DHT22;25832;45.490;4.912;2023-04-24T04:30:03;10.30;99.90
40123;DHT22;25832;45.490;4.912;2023-04-24T04:32:33;10.20;99.90
40123;DHT22;25832;45.490;4.912;2023-04-24T04:35:00;10.00;99.90
40123;DHT22;25832;45.490;4.912;2023-04-24T04:37:30;9.90;99.90
40123;DHT22;25832;45.490;4.912;2023-04-24T04:39:57;10.00;99.90
40123;DHT22;25832;45.490;4.912;2023-04-24T04:42:24;10.00;99.90
40123;DHT22;25832;45.490;4.912;2023-04-24T04:44:49;10.00;99.90
40123;DHT22;25832;45.490;4.912;2023-04-24T04:47:16;10.00;99.90
40123;DHT22;25832;45.490;4.912;2023-04-24T04:49:43;9.90;99.90
40123;DHT22;25832;45.490;4.912;2023-04-24T04:52:09;9.80;99.90
40123;DHT22;25832;45.490;4.912;2023-04-24T04:54:35;9.80;99.90
40123;DHT22;25832;45.490;4.912;2023-04-24T04:57:00;9.70;99.90
40123;DHT22;25832;45.490;4.912;2023-04-24T04:59:27;9.70;99.90
40123;DHT22;25832;45.490;4.912;2023-04-24T05:01:52;9.50;99.90
40123;DHT22;25832;45.490;4.912;2023-04-24T05:04:18;9.40;99.90
40123;DHT22;25832;45.490;4.912;2023-04-24T05:06:44;9.30;99.90
40123;DHT22;25832;45.490;4.912;2023-04-24T05:09:10;9.20;99.90
40123;DHT22;25832;45.490;4.912;2023-04-24T05:11:36;9.20;99.90
40123;DHT22;25832;45.490;4.912;2023-04-24T05:14:01;9.10;99.90
40123;DHT22;25832;45.490;4.912;2023-04-24T05:16:27;9.10;99.90
40123;DHT22;25832;45.490;4.912;2023-04-24T05:18:52;9.20;99.90
40123;DHT22;25832;45.490;4.912;2023-04-24T05:21:18;9.20;99.90
40123;DHT22;25832;45.490;4.912;2023-04-24T05:23:44;9.10;99.90
40123;DHT22;25832;45.490;4.912;2023-04-24T05:26:09;9.10;99.90
40123;DHT22;25832;45.490;4.912;2023-04-24T05:28:35;9.00;99.90
40123;DHT22;25832;45.490;4.912;2023-04-24T05:31:02;9.00;99.90
40123;DHT22;25832;45.490;4.912;2023-04-24T05:33:28;9.00;99.90
40123;DHT22;25832;45.490;4.912;2023-04-24T05:35:54;9.00;99.90
40123;DHT22;25832;45.490;4.912;2023-04-24T05:38:19;9.00;99.90
40123;DHT22;25832;45.490;4.912;2023-04-24T05:40:45;9.10;99.90
40123;DHT22;25832;45.490;4.912;2023-04-24T05:43:12;9.10;99.90
40123;DHT22;25832;45.490;4.912;2023-04-24T05:45:38;9.10;99.90
40123;DHT22;25832;45.490;4.912;2023-04-24T05:48:04;9.20;99.90
40123;DHT22;25832;45.490;4.912;2023-04-24T05:50:30;9.40;99.90
40123;DHT22;25832;45.490;4.912;2023-04-24T05:52:55;9.50;99.90
40123;DHT22;25832;45.490;4.912;2023-04-24T05:55:24;9.80;99.90
40123;DHT22;25832;45.490;4.912;2023-04-24T05:57:50;10.10;99.90
40123;DHT22;25832;45.490;4.912;2023-04-24T06:00:16;10.40;99.90
40123;DHT22;25832;45.490;4.912;2023-04-24T06:02:43;10.80;99.90
40123;DHT22;25832;45.490;4.912;2023-04-24T06:05:08;11.20;99.90
40123;DHT22;25832;45.490;4.912;2023-04-24T06:07:35;11.60;99.90
40123;DHT22;25832;45.490;4.912;2023-04-24T06:10:00;11.70;99.90
40123;DHT22;25832;45.490;4.912;2023-04-24T06:12:26;12.00;99.90
40123;DHT22;25832;45.490;4.912;2023-04-24T06:14:52;12.30;99.90
40123;DHT22;25832;45.490;4.912;2023-04-24T06:17:19;12.40;99.90
40123;DHT22;25832;45.490;4.912;2023-04-24T06:19:45;12.60;99.90
40123;DHT22;25832;45.490;4.912;2023-04-24T06:22:10;12.70;99.90
40123;DHT22;25832;45.490;4.912;2023-04-24T06:24:36;13.00;99.90
40123;DHT22;25832;45.490;4.912;2023-04-24T06:27:02;13.20;99.90
40123;DHT22;25832;45.490;4.912;2023-04-24T06:29:28;13.40;99.90
40123;DHT22;25832;45.490;4.912;2023-04-24T06:31:53;13.40;99.90
40123;DHT22;25832;45.490;4.912;2023-04-24T06:34:19;13.50;99.90
40123;DHT22;25832;45.490;4.912;2023-04-24T06:36:46;13.60;99.90
40123;DHT22;25832;45.490;4.912;2023-04-24T06:39:11;13.80;99.90
40123;DHT22;25832;45.490;4.912;2023-04-24T06:41:37;14.00;99.90
40123;DHT22;25832;45.490;4.912;2023-04-24T06:44:03;13.90;99.90
40123;DHT22;25832;45.490;4.912;2023-04-24T06:46:29;13.80;99.90
40123;DHT22;25832;45.490;4.912;2023-04-24T06:48:55;13.80;99.90
40123;DHT22;25832;45.490;4.912;2023-04-24T06:51:24;13.60;99.90
40123;DHT22;25832;45.490;4.912;2023-04-24T06:53:51;13.40;99.90
40123;DHT22;25832;45.490;4.912;2023-04-24T06:56:17;13.20;99.90
40123;DHT22;25832;45.490;4.912;2023-04-24T06:58:43;13.20;99.90
40123;DHT22;25832;45.490;4.912;2023-04-24T07:01:09;13.20;99.90
40123;DHT22;25832;45.490;4.912;2023-04-24T07:03:35;13.10;99.90
40123;DHT22;25832;45.490;4.912;2023-04-24T07:06:01;13.00;99.90
40123;DHT22;25832;45.490;4.912;2023-04-24T07:08:29;12.90;99.90
40123;DHT22;25832;45.490;4.912;2023-04-24T07:10:56;12.80;99.90
40123;DHT22;25832;45.490;4.912;2023-04-24T07:13:22;12.80;99.90
40123;DHT22;25832;45.490;4.912;2023-04-24T07:15:48;12.90;99.90
40123;DHT22;25832;45.490;4.912;2023-04-24T07:18:20;13.10;99.90
40123;DHT22;25832;45.490;4.912;2023-04-24T07:20:45;13.10;99.90
40123;DHT22;25832;45.490;4.912;2023-04-24T07:23:11;13.00;99.90
40123;DHT22;25832;45.490;4.912;2023-04-24T07:25:37;12.70;99.90
40123;DHT22;25832;45.490;4.912;2023-04-24T07:28:03;12.70;99.90
40123;DHT22;25832;45.490;4.912;2023-04-24T07:30:30;12.70;99.90
40123;DHT22;25832;45.490;4.912;2023-04-24T07:32:58;12.70;99.90
40123;DHT22;25832;45.490;4.912;2023-04-24T07:35:24;12.70;99.90
40123;DHT22;25832;45.490;4.912;2023-04-24T07:37:52;12.80;99.90
40123;DHT22;25832;45.490;4.912;2023-04-24T07:40:18;13.00;99.90
40123;DHT22;25832;45.490;4.912;2023-04-24T07:42:44;13.40;99.90
40123;DHT22;25832;45.490;4.912;2023-04-24T07:45:09;13.40;99.90
40123;DHT22;25832;45.490;4.912;2023-04-24T07:47:35;13.20;99.90
40123;DHT22;25832;45.490;4.912;2023-04-24T07:50:03;12.90;99.90
40123;DHT22;25832;45.490;4.912;2023-04-24T07:52:28;12.80;99.90
40123;DHT22;25832;45.490;4.912;2023-04-24T07:54:55;12.90;99.90
40123;DHT22;25832;45.490;4.912;2023-04-24T07:57:24;13.00;99.90
40123;DHT22;25832;45.490;4.912;2023-04-24T07:59:50;13.10;99.90
40123;DHT22;25832;45.490;4.912;2023-04-24T08:02:16;13.20;99.90
40123;DHT22;25832;45.490;4.912;2023-04-24T08:04:42;13.20;99.90
40123;DHT22;25832;45.490;4.912;2023-04-24T08:07:07;13.30;99.90
40123;DHT22;25832;45.490;4.912;2023-04-24T08:09:33;13.70;99.90
40123;DHT22;25832;45.490;4.912;2023-04-24T08:11:59;14.00;99.90
40123;DHT22;25832;45.490;4.912;2023-04-24T08:14:25;14.10;99.90
40123;DHT22;25832;45.490;4.912;2023-04-24T08:16:53;14.30;99.90
40123;DHT22;25832;45.490;4.912;2023-04-24T08:19:19;14.40;99.90
40123;DHT22;25832;45.490;4.912;2023-04-24T08:21:44;14.50;99.90
40123;DHT22;25832;45.490;4.912;2023-04-24T08:24:10;14.80;99.90
40123;DHT22;25832;45.490;4.912;2023-04-24T08:26:36;15.00;99.90
40123;DHT22;25832;45.490;4.912;2023-04-24T08:29:01;15.20;99.90
40123;DHT22;25832;45.490;4.912;2023-04-24T08:31:27;14.70;99.80
40123;DHT22;25832;45.490;4.912;2023-04-24T08:33:53;14.70;99.90
40123;DHT22;25832;45.490;4.912;2023-04-24T08:36:18;14.80;99.90
40123;DHT22;25832;45.490;4.912;2023-04-24T08:38:44;14.70;99.20
40123;DHT22;25832;45.490;4.912;2023-04-24T08:41:11;14.60;99.90
40123;DHT22;25832;45.490;4.912;2023-04-24T08:43:40;14.50;99.90
40123;DHT22;25832;45.490;4.912;2023-04-24T08:46:07;14.50;99.90
40123;DHT22;25832;45.490;4.912;2023-04-24T08:48:32;14.60;99.90
40123;DHT22;25832;45.490;4.912;2023-04-24T08:50:59;14.60;99.40
40123;DHT22;25832;45.490;4.912;2023-04-24T08:53:25;14.70;99.90
40123;DHT22;25832;45.490;4.912;2023-04-24T08:55:51;15.00;98.40
40123;DHT22;25832;45.490;4.912;2023-04-24T08:58:19;15.20;99.00
40123;DHT22;25832;45.490;4.912;2023-04-24T09:00:45;15.40;99.20
40123;DHT22;25832;45.490;4.912;2023-04-24T09:03:16;15.20;97.80
40123;DHT22;25832;45.490;4.912;2023-04-24T09:05:47;15.00;98.70
40123;DHT22;25832;45.490;4.912;2023-04-24T09:08:14;14.90;99.90
40123;DHT22;25832;45.490;4.912;2023-04-24T09:10:40;14.90;99.60
40123;DHT22;25832;45.490;4.912;2023-04-24T09:13:06;14.90;97.90
40123;DHT22;25832;45.490;4.912;2023-04-24T09:15:34;14.70;96.50
40123;DHT22;25832;45.490;4.912;2023-04-24T09:18:00;14.40;98.30
40123;DHT22;25832;45.490;4.912;2023-04-24T09:20:27;14.50;98.30
40123;DHT22;25832;45.490;4.912;2023-04-24T09:22:56;14.80;99.90
40123;DHT22;25832;45.490;4.912;2023-04-24T09:25:22;15.20;99.80
40123;DHT22;25832;45.490;4.912;2023-04-24T09:27:48;15.30;97.40
40123;DHT22;25832;45.490;4.912;2023-04-24T09:30:21;15.40;98.40
40123;DHT22;25832;45.490;4.912;2023-04-24T09:32:47;15.70;98.70
40123;DHT22;25832;45.490;4.912;2023-04-24T09:35:14;15.60;96.50
40123;DHT22;25832;45.490;4.912;2023-04-24T09:37:45;15.70;99.90
40123;DHT22;25832;45.490;4.912;2023-04-24T09:40:15;15.50;97.80
40123;DHT22;25832;45.490;4.912;2023-04-24T09:42:59;15.40;99.20
40123;DHT22;25832;45.490;4.912;2023-04-24T09:45:29;15.40;97.10
40123;DHT22;25832;45.490;4.912;2023-04-24T09:48:00;15.50;97.10
40123;DHT22;25832;45.490;4.912;2023-04-24T09:50:25;15.70;96.70
40123;DHT22;25832;45.490;4.912;2023-04-24T09:53:01;15.60;96.10
40123;DHT22;25832;45.490;4.912;2023-04-24T09:55:27;15.70;97.50
40123;DHT22;25832;45.490;4.912;2023-04-24T09:58:02;15.90;99.30
40123;DHT22;25832;45.490;4.912;2023-04-24T10:00:32;16.10;99.30
40123;DHT22;25832;45.490;4.912;2023-04-24T10:03:01;16.20;96.30
40123;DHT22;25832;45.490;4.912;2023-04-24T10:05:35;16.10;96.90
40123;DHT22;25832;45.490;4.912;2023-04-24T10:08:09;16.20;99.40
40123;DHT22;25832;45.490;4.912;2023-04-24T10:10:42;16.20;97.80
40123;DHT22;25832;45.490;4.912;2023-04-24T10:13:10;16.00;95.00
40123;DHT22;25832;45.490;4.912;2023-04-24T10:15:37;16.00;96.40
40123;DHT22;25832;45.490;4.912;2023-04-24T10:18:05;16.10;95.30
40123;DHT22;25832;45.490;4.912;2023-04-24T10:20:32;16.10;95.80
40123;DHT22;25832;45.490;4.912;2023-04-24T10:22:59;16.10;97.00
40123;DHT22;25832;45.490;4.912;2023-04-24T10:25:27;16.10;94.70
40123;DHT22;25832;45.490;4.912;2023-04-24T10:27:54;15.90;94.70
40123;DHT22;25832;45.490;4.912;2023-04-24T10:30:26;15.60;96.30
40123;DHT22;25832;45.490;4.912;2023-04-24T10:32:52;15.50;96.10
40123;DHT22;25832;45.490;4.912;2023-04-24T10:35:18;15.30;96.10
40123;DHT22;25832;45.490;4.912;2023-04-24T10:38:11;15.10;97.10
40123;DHT22;25832;45.490;4.912;2023-04-24T10:40:37;15.20;96.10
40123;DHT22;25832;45.490;4.912;2023-04-24T10:43:04;15.30;95.60
40123;DHT22;25832;45.490;4.912;2023-04-24T10:45:37;15.40;97.60
40123;DHT22;25832;45.490;4.912;2023-04-24T10:48:09;15.60;95.70
40123;DHT22;25832;45.490;4.912;2023-04-24T10:50:47;15.80;96.60
40123;DHT22;25832;45.490;4.912;2023-04-24T10:53:17;15.70;95.60
40123;DHT22;25832;45.490;4.912;2023-04-24T10:58:23;15.20;95.80
40123;DHT22;25832;45.490;4.912;2023-04-24T11:00:59;14.90;95.90
40123;DHT22;25832;45.490;4.912;2023-04-24T11:03:33;14.90;96.50
40123;DHT22;25832;45.490;4.912;2023-04-24T11:06:04;14.90;97.70
40123;DHT22;25832;45.490;4.912;2023-04-24T11:08:43;15.00;96.00
40123;DHT22;25832;45.490;4.912;2023-04-24T11:11:11;14.90;95.50
40123;DHT22;25832;45.490;4.912;2023-04-24T11:16:52;15.10;96.20
40123;DHT22;25832;45.490;4.912;2023-04-24T11:19:21;15.20;95.50
40123;DHT22;25832;45.490;4.912;2023-04-24T11:21:55;15.40;95.70
40123;DHT22;25832;45.490;4.912;2023-04-24T11:24:38;15.60;94.50
40123;DHT22;25832;45.490;4.912;2023-04-24T11:32:51;16.30;91.40
40123;DHT22;25832;45.490;4.912;2023-04-24T11:37:42;16.50;92.40
40123;DHT22;25832;45.490;4.912;2023-04-24T11:40:11;16.60;91.40
40123;DHT22;25832;45.490;4.912;2023-04-24T11:42:38;16.70;90.50
40123;DHT22;25832;45.490;4.912;2023-04-24T11:45:24;16.80;92.70
40123;DHT22;25832;45.490;4.912;2023-04-24T11:47:49;17.00;95.20
40123;DHT22;25832;45.490;4.912;2023-04-24T11:50:17;17.00;92.30
40123;DHT22;25832;45.490;4.912;2023-04-24T11:52:45;16.90;94.70
40123;DHT22;25832;45.490;4.912;2023-04-24T11:57:42;16.90;92.70
40123;DHT22;25832;45.490;4.912;2023-04-24T12:00:18;16.90;91.90
40123;DHT22;25832;45.490;4.912;2023-04-24T12:02:45;16.90;93.30
40123;DHT22;25832;45.490;4.912;2023-04-24T12:05:39;17.00;92.90
40123;DHT22;25832;45.490;4.912;2023-04-24T12:08:05;16.80;91.50
40123;DHT22;25832;45.490;4.912;2023-04-24T12:10:32;16.80;92.90
40123;DHT22;25832;45.490;4.912;2023-04-24T12:12:58;17.10;92.50
40123;DHT22;25832;45.490;4.912;2023-04-24T12:15:25;17.20;93.10
40123;DHT22;25832;45.490;4.912;2023-04-24T12:17:52;17.20;92.90
40123;DHT22;25832;45.490;4.912;2023-04-24T12:20:24;17.10;92.10
40123;DHT22;25832;45.490;4.912;2023-04-24T12:22:52;16.80;91.10
40123;DHT22;25832;45.490;4.912;2023-04-24T12:25:28;16.80;91.60
40123;DHT22;25832;45.490;4.912;2023-04-24T12:30:32;16.90;92.10
40123;DHT22;25832;45.490;4.912;2023-04-24T12:32:59;17.10;92.40
40123;DHT22;25832;45.490;4.912;2023-04-24T12:35:27;17.40;91.90
40123;DHT22;25832;45.490;4.912;2023-04-24T12:37:53;17.80;91.80
40123;DHT22;25832;45.490;4.912;2023-04-24T12:40:21;18.20;92.30
40123;DHT22;25832;45.490;4.912;2023-04-24T12:42:51;18.40;91.10
40123;DHT22;25832;45.490;4.912;2023-04-24T12:45:18;18.60;91.50
40123;DHT22;25832;45.490;4.912;2023-04-24T12:47:45;18.10;90.50
40123;DHT22;25832;45.490;4.912;2023-04-24T12:50:14;17.80;92.90
40123;DHT22;25832;45.490;4.912;2023-04-24T12:52:41;17.70;91.80
40123;DHT22;25832;45.490;4.912;2023-04-24T12:55:07;17.70;93.10
40123;DHT22;25832;45.490;4.912;2023-04-24T12:57:35;17.70;90.00
40123;DHT22;25832;45.490;4.912;2023-04-24T13:00:01;17.60;91.00
40123;DHT22;25832;45.490;4.912;2023-04-24T13:02:29;17.30;89.60
40123;DHT22;25832;45.490;4.912;2023-04-24T13:04:57;17.20;90.20
40123;DHT22;25832;45.490;4.912;2023-04-24T13:07:23;17.30;92.40
40123;DHT22;25832;45.490;4.912;2023-04-24T13:09:50;17.40;90.70
40123;DHT22;25832;45.490;4.912;2023-04-24T13:12:16;17.40;90.50
40123;DHT22;25832;45.490;4.912;2023-04-24T13:14:42;17.20;91.30
40123;DHT22;25832;45.490;4.912;2023-04-24T13:17:08;16.90;93.10
40123;DHT22;25832;45.490;4.912;2023-04-24T13:19:41;16.90;92.30
40123;DHT22;25832;45.490;4.912;2023-04-24T13:22:09;16.90;93.10
40123;DHT22;25832;45.490;4.912;2023-04-24T13:24:35;16.80;92.10
40123;DHT22;25832;45.490;4.912;2023-04-24T13:27:01;16.70;91.50
40123;DHT22;25832;45.490;4.912;2023-04-24T13:29:27;16.70;91.00
40123;DHT22;25832;45.490;4.912;2023-04-24T13:31:54;16.70;92.10
40123;DHT22;25832;45.490;4.912;2023-04-24T13:34:24;16.80;90.80
40123;DHT22;25832;45.490;4.912;2023-04-24T13:36:54;17.00;90.90
40123;DHT22;25832;45.490;4.912;2023-04-24T13:39:21;17.10;88.50
40123;DHT22;25832;45.490;4.912;2023-04-24T13:41:46;17.00;90.60
40123;DHT22;25832;45.490;4.912;2023-04-24T13:44:14;17.10;90.50
40123;DHT22;25832;45.490;4.912;2023-04-24T13:46:40;17.20;89.40
40123;DHT22;25832;45.490;4.912;2023-04-24T13:49:06;17.30;90.30
40123;DHT22;25832;45.490;4.912;2023-04-24T13:51:32;17.50;91.40
40123;DHT22;25832;45.490;4.912;2023-04-24T13:53:58;17.50;87.40
40123;DHT22;25832;45.490;4.912;2023-04-24T13:56:25;17.50;89.80
40123;DHT22;25832;45.490;4.912;2023-04-24T13:58:51;17.60;90.10
40123;DHT22;25832;45.490;4.912;2023-04-24T14:01:17;17.60;90.30
40123;DHT22;25832;45.490;4.912;2023-04-24T14:03:42;17.50;85.30
40123;DHT22;25832;45.490;4.912;2023-04-24T14:06:11;17.50;84.10
40123;DHT22;25832;45.490;4.912;2023-04-24T14:08:36;17.60;85.70
40123;DHT22;25832;45.490;4.912;2023-04-24T14:11:02;17.80;87.50
40123;DHT22;25832;45.490;4.912;2023-04-24T14:13:28;17.90;85.90
40123;DHT22;25832;45.490;4.912;2023-04-24T14:15:54;18.10;85.10
40123;DHT22;25832;45.490;4.912;2023-04-24T14:18:20;18.20;89.30
40123;DHT22;25832;45.490;4.912;2023-04-24T14:20:45;18.20;88.50
40123;DHT22;25832;45.490;4.912;2023-04-24T14:23:11;18.30;87.10
40123;DHT22;25832;45.490;4.912;2023-04-24T14:25:37;18.10;85.10
40123;DHT22;25832;45.490;4.912;2023-04-24T14:28:03;18.00;88.40
40123;DHT22;25832;45.490;4.912;2023-04-24T14:30:28;17.90;90.00
40123;DHT22;25832;45.490;4.912;2023-04-24T14:32:54;17.80;89.70
40123;DHT22;25832;45.490;4.912;2023-04-24T14:35:20;17.80;87.20
40123;DHT22;25832;45.490;4.912;2023-04-24T14:37:45;17.70;90.70
40123;DHT22;25832;45.490;4.912;2023-04-24T14:40:11;17.60;84.30
40123;DHT22;25832;45.490;4.912;2023-04-24T14:42:37;17.50;89.30
40123;DHT22;25832;45.490;4.912;2023-04-24T14:45:03;17.20;87.50
40123;DHT22;25832;45.490;4.912;2023-04-24T14:47:28;16.90;90.30
40123;DHT22;25832;45.490;4.912;2023-04-24T14:49:55;16.90;90.20
40123;DHT22;25832;45.490;4.912;2023-04-24T14:52:20;16.80;91.20
40123;DHT22;25832;45.490;4.912;2023-04-24T14:54:46;16.70;90.40
40123;DHT22;25832;45.490;4.912;2023-04-24T14:57:12;16.70;90.30
40123;DHT22;25832;45.490;4.912;2023-04-24T14:59:38;16.80;90.70
40123;DHT22;25832;45.490;4.912;2023-04-24T15:02:04;16.90;88.70
40123;DHT22;25832;45.490;4.912;2023-04-24T15:04:29;16.90;89.40
40123;DHT22;25832;45.490;4.912;2023-04-24T15:06:56;16.80;89.50
40123;DHT22;25832;45.490;4.912;2023-04-24T15:09:23;16.70;89.80
40123;DHT22;25832;45.490;4.912;2023-04-24T15:11:49;16.40;89.60
40123;DHT22;25832;45.490;4.912;2023-04-24T15:14:16;16.20;90.90
40123;DHT22;25832;45.490;4.912;2023-04-24T15:16:42;16.20;91.50
40123;DHT22;25832;45.490;4.912;2023-04-24T15:19:07;16.30;92.50
40123;DHT22;25832;45.490;4.912;2023-04-24T15:21:33;16.30;91.60
40123;DHT22;25832;45.490;4.912;2023-04-24T15:23:59;16.50;91.00
40123;DHT22;25832;45.490;4.912;2023-04-24T15:26:25;16.50;90.60
40123;DHT22;25832;45.490;4.912;2023-04-24T15:28:51;16.50;90.20
40123;DHT22;25832;45.490;4.912;2023-04-24T15:31:18;16.50;91.70
40123;DHT22;25832;45.490;4.912;2023-04-24T15:33:44;16.70;91.30
40123;DHT22;25832;45.490;4.912;2023-04-24T15:36:10;17.00;88.70
40123;DHT22;25832;45.490;4.912;2023-04-24T15:38:37;17.20;91.40
40123;DHT22;25832;45.490;4.912;2023-04-24T15:41:02;17.40;90.60
40123;DHT22;25832;45.490;4.912;2023-04-24T15:43:28;17.30;87.60
40123;DHT22;25832;45.490;4.912;2023-04-24T15:46:00;17.10;89.60
40123;DHT22;25832;45.490;4.912;2023-04-24T15:48:27;17.00;90.70
40123;DHT22;25832;45.490;4.912;2023-04-24T15:50:53;16.80;90.30